Time;durP1;ratioP1;P1;durP2;ratioP2;P2;SDS_P1;SDS_P2;PMS_P1;PMS_P2;Temp;Humidity;BMP_temperature;BMP_pressure;BME280_temperature;BME280_humidity;BME280_pressure;Samples;Min_cycle;Max_cycle;Signal;HPM_P1;HPM_P2
2021/07/28 00:01:44;;;;;;;10.90;1.73;;;;;;;;;;4854050;28;20200;-73
2021/07/28 00:04:25;;;;;;;6.07;0.97;;;;;;;;;;4855479;28;20296;-72
2021/07/28 00:07:09;;;;;;;7.27;1.23;;;17.90;40.40;;;;;;4856395;28;20648;-74
2021/07/28 00:09:51;;;;;;;13.00;1.97;;;;;;;;;;4854940;28;20174;-72
2021/07/28 00:12:32;;;;;;;8.90;1.53;;;;;;;;;;4855892;28;20210;-73
2021/07/28 00:15:14;;;;;;;9.47;1.53;;;17.80;41.20;;;;;;4858425;28;20220;-73
2021/07/28 00:17:59;;;;;;;13.30;2.10;;;17.80;41.20;;;;;;4875066;28;20178;-76
2021/07/28 00:23:40;;;;;;;12.83;2.07;;;17.70;39.70;;;;;;4875536;28;20209;-73
2021/07/28 00:26:21;;;;;;;6.43;1.10;;;;;;;;;;4878746;28;20210;-73
2021/07/28 00:29:02;;;;;;;10.00;1.67;;;;;;;;;;4878063;28;20508;-76
2021/07/28 00:31:44;;;;;;;6.53;1.10;;;;;;;;;;4878549;28;20182;-73
2021/07/28 00:34:25;;;;;;;13.37;2.13;;;;;;;;;;4878252;28;20187;-73
2021/07/28 00:37:06;;;;;;;8.83;1.47;;;;;;;;;;4878658;28;20265;-74
2021/07/28 00:39:49;;;;;;;10.77;1.70;;;17.60;39.00;;;;;;4877272;28;20213;-76
2021/07/28 00:42:30;;;;;;;5.77;1.00;;;;;;;;;;4878679;28;20173;-74
2021/07/28 00:45:11;;;;;;;12.17;2.00;;;17.40;38.70;;;;;;4877874;28;20664;-73
2021/07/28 00:47:53;;;;;;;9.43;1.53;;;;;;;;;;4878320;28;20208;-73
2021/07/28 00:50:35;;;;;;;5.93;1.10;;;17.40;37.80;;;;;;4877207;28;20559;-73
2021/07/28 00:53:19;;;;;;;7.10;1.30;;;;;;;;;;4878326;28;20179;-74
2021/07/28 00:56:02;;;;;;;26.87;4.20;;;17.40;37.20;;;;;;4877059;28;20185;-72
2021/07/28 00:58:43;;;;;;;24.57;3.67;;;;;;;;;;4877035;28;20181;-72
2021/07/28 01:01:24;;;;;;;6.17;1.03;;;;;;;;;;4876182;28;20514;-72
2021/07/28 01:04:05;;;;;;;8.17;1.40;;;;;;;;;;4878161;28;20213;-72
2021/07/28 01:06:46;;;;;;;12.60;2.00;;;;;;;;;;4877815;28;20290;-72
2021/07/28 01:09:28;;;;;;;5.80;1.00;;;;;;;;;;4877200;28;20265;-75
2021/07/28 01:12:11;;;;;;;8.83;1.47;;;17.50;38.10;;;;;;4877736;28;20177;-74
2021/07/28 01:14:53;;;;;;;10.47;1.70;;;;;;;;;;4871366;28;20660;-73
2021/07/28 01:17:34;;;;;;;7.90;1.33;;;;;;;;;;4864818;28;20185;-72
2021/07/28 01:20:20;;;;;;;7.20;1.17;;;17.50;36.80;;;;;;4876710;28;20280;-72
2021/07/28 01:23:04;;;;;;;7.67;1.33;;;17.50;36.40;;;;;;4877827;28;20186;-74
2021/07/28 01:25:47;;;;;;;12.33;1.90;;;17.40;36.10;;;;;;4877537;28;20222;-72
2021/07/28 01:28:30;;;;;;;19.77;3.17;;;17.50;36.00;;;;;;4877193;28;20653;-71
2021/07/28 01:31:12;;;;;;;14.23;2.33;;;17.40;35.90;;;;;;4877435;28;20181;-74
2021/07/28 01:33:54;;;;;;;11.80;1.80;;;;;;;;;;4877669;28;20643;-74
2021/07/28 01:36:35;;;;;;;5.40;1.00;;;;;;;;;;4862343;28;20174;-75
2021/07/28 01:39:16;;;;;;;10.60;1.70;;;;;;;;;;4861776;28;20212;-74
2021/07/28 01:42:02;;;;;;;10.37;1.67;;;17.30;36.20;;;;;;4861650;28;20513;-76
2021/07/28 01:44:43;;;;;;;13.13;2.10;;;;;;;;;;4877058;28;20292;-74
2021/07/28 01:47:24;;;;;;;7.43;1.23;;;;;;;;;;4877681;28;20640;-75
2021/07/28 01:50:07;;;;;;;9.87;1.53;;;18.40;36.60;;;;;;4876763;28;20170;-73
2021/07/28 01:52:48;;;;;;;10.60;1.73;;;;;;;;;;4876727;28;20201;-81
2021/07/28 01:55:29;;;;;;;6.17;1.10;;;;;;;;;;4876612;28;20181;-74
2021/07/28 01:58:12;;;;;;;7.83;1.30;;;17.10;36.20;;;;;;4876360;28;20179;-74
2021/07/28 02:00:54;;;;;;;15.40;2.47;;;;;;;;;;4875143;28;20264;-75
2021/07/28 02:03:35;;;;;;;7.17;1.30;;;;;;;;;;4876495;28;20174;-74
2021/07/28 02:06:16;;;;;;;6.97;1.20;;;;;;;;;;4876758;28;20276;-74
2021/07/28 02:08:57;;;;;;;11.67;1.90;;;;;;;;;;4876049;28;20182;-74
2021/07/28 02:11:38;;;;;;;7.93;1.37;;;;;;;;;;4876696;28;20224;-74
2021/07/28 02:14:21;;;;;;;8.50;1.50;;;16.90;36.00;;;;;;4876234;28;20185;-74
2021/07/28 02:17:02;;;;;;;5.20;0.97;;;;;;;;;;4861423;28;20193;-77
2021/07/28 02:19:43;;;;;;;7.30;1.20;;;;;;;;;;4875947;28;20178;-74
2021/07/28 02:22:24;;;;;;;7.77;1.37;;;;;;;;;;4876708;28;20577;-74
2021/07/28 02:25:05;;;;;;;8.37;1.40;;;;;;;;;;4875770;28;20209;-74
2021/07/28 02:27:46;;;;;;;11.70;1.77;;;;;;;;;;4876434;28;20204;-74
2021/07/28 02:30:28;;;;;;;7.10;1.13;;;16.60;37.20;;;;;;4876039;28;20169;-74
2021/07/28 02:33:11;;;;;;;14.43;2.17;;;16.50;37.10;;;;;;4876273;28;20178;-74
2021/07/28 02:35:52;;;;;;;14.00;2.03;;;;;;;;;;4860411;28;20276;-73
2021/07/28 02:38:33;;;;;;;22.73;3.20;;;;;;;;;;4875872;28;20702;-80
2021/07/28 02:41:14;;;;;;;8.80;1.37;;;;;;;;;;4876250;28;20190;-74
2021/07/28 02:43:55;;;;;;;13.93;2.03;;;;;;;;;;4876038;28;20181;-74
2021/07/28 02:46:37;;;;;;;7.80;1.17;;;16.50;36.00;;;;;;4874968;28;20189;-74
2021/07/28 02:49:18;;;;;;;7.20;1.07;;;;;;;;;;4875828;28;20174;-75
2021/07/28 02:51:59;;;;;;;14.10;2.07;;;;;;;;;;4876263;28;20181;-73
2021/07/28 02:54:40;;;;;;;14.27;2.03;;;;;;;;;;4874997;28;20746;-72
2021/07/28 02:57:21;;;;;;;6.03;0.87;;;;;;;;;;4875450;28;20181;-74
2021/07/28 03:00:04;;;;;;;8.53;1.23;;;16.30;36.30;;;;;;4875546;28;20703;-76
2021/07/28 03:02:46;;;;;;;12.67;1.80;;;16.20;36.40;;;;;;4860133;28;20512;-73
2021/07/28 03:05:27;;;;;;;8.13;1.10;;;;;;;;;;4875460;28;20213;-74
2021/07/28 03:08:08;;;;;;;9.13;1.37;;;;;;;;;;4875279;28;20528;-75
2021/07/28 03:10:49;;;;;;;13.63;1.93;;;;;;;;;;4875991;28;20169;-74
2021/07/28 03:13:31;;;;;;;7.87;1.13;;;;;;;;;;4876194;28;20205;-74
2021/07/28 03:16:12;;;;;;;12.33;1.73;;;;;;;;;;4875299;28;20633;-74
2021/07/28 03:18:54;;;;;;;15.87;2.20;;;16.10;36.60;;;;;;4874175;28;20174;-73
2021/07/28 03:21:35;;;;;;;8.63;1.23;;;;;;;;;;4856779;28;20179;-74
2021/07/28 03:24:16;;;;;;;10.43;1.60;;;;;;;;;;4862189;28;20181;-74
2021/07/28 03:26:58;;;;;;;16.73;2.30;;;;;;;;;;4875737;28;20221;-75
2021/07/28 03:29:39;;;;;;;9.00;1.33;;;;;;;;;;4871230;28;20189;-73
2021/07/28 03:32:20;;;;;;;9.47;1.30;;;;;;;;;;4856373;28;20600;-76
2021/07/28 03:35:02;;;;;;;10.73;1.50;;;16.20;35.70;;;;;;4855895;28;20174;-76
2021/07/28 03:37:43;;;;;;;10.67;1.50;;;;;;;;;;4856259;28;20178;-73
2021/07/28 03:40:24;;;;;;;7.43;1.13;;;;;;;;;;4854996;28;20178;-76
2021/07/28 03:43:06;;;;;;;11.67;1.63;;;;;;;;;;4856540;28;20680;-74
2021/07/28 03:45:48;;;;;;;15.80;2.10;;;;;;;;;;4855297;28;20218;-74
2021/07/28 03:48:31;;;;;;;23.53;3.13;;;;;;;;;;4836782;28;20645;-74
2021/07/28 03:51:13;;;;;;;9.47;1.47;;;16.50;34.90;;;;;;4836582;28;20182;-75
2021/07/28 03:53:54;;;;;;;17.30;2.40;;;;;;;;;;4850932;28;20256;-73
2021/07/28 03:56:36;;;;;;;9.23;1.40;;;;;;;;;;4874936;28;20182;-75
2021/07/28 03:59:17;;;;;;;8.93;1.33;;;;;;;;;;4877132;28;20205;-74
2021/07/28 04:01:58;;;;;;;15.00;2.10;;;;;;;;;;4875960;28;20228;-75
2021/07/28 04:04:40;;;;;;;13.70;1.90;;;17.00;34.20;;;;;;4878991;28;20169;-74
2021/07/28 04:07:22;;;;;;;3.27;0.50;;;17.20;34.10;;;;;;4879102;28;20173;-77
2021/07/28 04:10:04;;;;;;;7.53;1.10;;;;;;;;;;4878629;28;20181;-75
2021/07/28 04:12:45;;;;;;;11.73;1.57;;;;;;;;;;4878246;28;20169;-76
2021/07/28 04:15:27;;;;;;;9.73;1.37;;;;;;;;;;4878927;28;20209;-75
2021/07/28 04:18:08;;;;;;;9.50;1.37;;;;;;;;;;4878793;28;20543;-75
2021/07/28 04:20:49;;;;;;;14.43;1.90;;;;;;;;;;4878558;28;20197;-74
2021/07/28 04:23:31;;;;;;;9.03;1.37;;;18.00;34.20;;;;;;4878212;28;20205;-74
2021/07/28 04:26:13;;;;;;;11.13;1.57;;;;;;;;;;4878319;28;20579;-74
2021/07/28 04:28:54;;;;;;;13.50;1.93;;;;;;;;;;4877976;28;20186;-73
2021/07/28 04:31:35;;;;;;;8.20;1.20;;;;;;;;;;4878906;28;20173;-74
2021/07/28 04:34:16;;;;;;;11.13;1.67;;;;;;;;;;4877853;28;20257;-74
2021/07/28 04:36:57;;;;;;;18.23;2.53;;;;;;;;;;4878386;28;20181;-75
2021/07/28 04:39:40;;;;;;;8.00;1.20;;;18.10;34.80;;;;;;4877934;28;20177;-74
2021/07/28 04:42:21;;;;;;;6.60;1.03;;;;;;;;;;4878866;28;20190;-74
2021/07/28 04:45:02;;;;;;;6.77;1.03;;;;;;;;;;4862294;28;20261;-77
2021/07/28 04:47:43;;;;;;;7.97;1.13;;;;;;;;;;4878213;28;20256;-74
2021/07/28 04:50:24;;;;;;;7.97;1.23;;;;;;;;;;4877921;28;20177;-73
2021/07/28 04:53:05;;;;;;;11.23;1.67;;;;;;;;;;4878308;28;20178;-75
2021/07/28 04:55:53;;;;;;;16.23;2.23;;;18.50;35.50;;;;;;4857902;28;20210;-75
2021/07/28 04:58:34;;;;;;;29.13;3.93;;;;;;;;;;4858072;28;20513;-75
2021/07/28 05:01:15;;;;;;;11.47;1.63;;;;;;;;;;4857423;28;20191;-75
2021/07/28 05:03:57;;;;;;;16.43;2.37;;;;;;;;;;4858926;28;20209;-75
2021/07/28 05:06:40;;;;;;;8.73;1.33;;;;;;;;;;4857629;28;20250;-74
2021/07/28 05:09:21;;;;;;;5.53;0.87;;;;;;;;;;4857524;28;20190;-76
2021/07/28 05:12:04;;;;;;;7.83;1.23;;;19.20;44.70;;;;;;4859039;28;20184;-75
2021/07/28 05:14:45;;;;;;;20.53;2.90;;;;;;;;;;4862395;28;20511;-74
2021/07/28 05:17:26;;;;;;;9.40;1.47;;;;;;;;;;4876695;28;20524;-74
2021/07/28 05:20:08;;;;;;;10.50;1.50;;;19.60;62.40;;;;;;4877122;28;20179;-77
2021/07/28 05:22:49;;;;;;;18.50;2.50;;;;;;;;;;4877830;28;20210;-74
2021/07/28 05:25:30;;;;;;;8.70;1.20;;;;;;;;;;4862374;28;20215;-74
2021/07/28 05:28:13;;;;;;;12.00;1.70;;;19.90;79.00;;;;;;4875968;28;20190;-74
2021/07/28 05:30:54;;;;;;;10.10;1.40;;;;;;;;;;4877846;28;20237;-74
2021/07/28 05:33:35;;;;;;;7.17;1.13;;;;;;;;;;4877919;28;20649;-74
2021/07/28 05:36:16;;;;;;;8.57;1.30;;;;;;;;;;4877551;28;20271;-74
2021/07/28 05:38:57;;;;;;;15.20;2.27;;;;;;;;;;4875583;28;20183;-75
2021/07/28 05:41:38;;;;;;;8.13;1.23;;;;;;;;;;4877769;28;20255;-73
2021/07/28 05:44:21;;;;;;;9.33;1.40;;;20.60;60.30;;;;;;4877568;28;20193;-73
2021/07/28 05:47:02;;;;;;;6.50;0.97;;;;;;;;;;4877287;28;20214;-74
2021/07/28 05:49:43;;;;;;;8.60;1.27;;;;;;;;;;4875247;28;20176;-74
2021/07/28 05:52:24;;;;;;;7.93;1.23;;;;;;;;;;4877433;28;20187;-73
2021/07/28 05:55:05;;;;;;;8.93;1.37;;;21.00;75.90;;;;;;4859798;28;20565;-74
2021/07/28 05:57:47;;;;;;;16.60;2.37;;;;;;;;;;4857757;28;20641;-74
2021/07/28 06:00:30;;;;;;;58.20;7.83;;;21.30;73.40;;;;;;4854060;28;20197;-74
2021/07/28 06:03:11;;;;;;;10.23;1.60;;;;;;;;;;4838965;28;20202;-75
2021/07/28 06:05:52;;;;;;;15.10;2.13;;;;;;;;;;4838312;28;20205;-75
2021/07/28 06:08:34;;;;;;;23.37;3.33;;;;;;;;;;4838172;28;20598;-75
2021/07/28 06:11:15;;;;;;;10.83;1.50;;;;;;;;;;4837553;28;20182;-75
2021/07/28 06:13:56;;;;;;;14.90;2.13;;;;;;;;;;4823553;28;20191;-74
2021/07/28 06:16:39;;;;;;;8.73;1.27;;;22.10;56.30;;;;;;4838455;28;20171;-74
2021/07/28 06:19:20;;;;;;;6.50;1.00;;;;;;;;;;4849388;28;20199;-74
2021/07/28 06:22:01;;;;;;;5.30;0.83;;;;;;;;;;4855651;28;20278;-74
2021/07/28 06:24:42;;;;;;;13.83;2.07;;;;;;;;;;4857184;28;20210;-74
2021/07/28 06:27:23;;;;;;;7.07;1.07;;;;;;;;;;4857474;28;20228;-74
2021/07/28 06:30:05;;;;;;;7.37;1.13;;;;;;;;;;4857056;28;20187;-74
2021/07/28 06:32:47;;;;;;;14.53;2.10;;;23.20;30.60;;;;;;4856586;28;20638;-75
2021/07/28 06:35:28;;;;;;;10.03;1.53;;;;;;;;;;4857495;28;20177;-75
2021/07/28 06:38:09;;;;;;;12.23;1.93;;;;;;;;;;4857318;28;20185;-75
2021/07/28 06:40:50;;;;;;;15.20;2.20;;;;;;;;;;4857325;28;20522;-75
2021/07/28 06:43:32;;;;;;;8.30;1.23;;;;;;;;;;4856634;28;20189;-75
2021/07/28 06:46:13;;;;;;;9.43;1.40;;;;;;;;;;4856913;28;20663;-75
2021/07/28 06:48:55;;;;;;;14.40;2.07;;;23.50;66.30;;;;;;4856773;28;20172;-77
2021/07/28 06:51:37;;;;;;;9.97;1.50;;;23.60;81.40;;;;;;4857223;28;20732;-74
2021/07/28 06:54:18;;;;;;;13.17;2.00;;;;;;;;;;4866979;28;20224;-80
2021/07/28 06:57:00;;;;;;;12.40;1.77;;;;;;;;;;4876545;28;20184;-78
2021/07/28 06:59:41;;;;;;;5.23;0.80;;;;;;;;;;4875866;28;20523;-77
2021/07/28 07:02:22;;;;;;;8.30;1.27;;;;;;;;;;4874407;28;20661;-77
2021/07/28 07:05:05;;;;;;;14.33;2.00;;;24.20;94.60;;;;;;4875416;28;20183;-76
2021/07/28 07:07:50;;;;;;;15.63;2.17;;;;;;;;;;4875836;28;20204;-78
2021/07/28 07:10:31;;;;;;;10.50;1.43;;;;;;;;;;4875861;28;20173;-75
2021/07/28 07:13:12;;;;;;;10.67;1.47;;;;;;;;;;4875855;28;20192;-76
2021/07/28 07:15:54;;;;;;;17.57;2.27;;;;;;;;;;4876497;28;20196;-82
2021/07/28 07:18:35;;;;;;;29.57;3.70;;;;;;;;;;4877563;28;20263;-90
2021/07/28 07:21:17;;;;;;;21.50;2.73;;;25.20;67.00;;;;;;4876420;28;20658;-81
2021/07/28 07:23:58;;;;;;;19.57;2.43;;;;;;;;;;4875464;28;20196;-85
2021/07/28 07:26:39;;;;;;;25.37;3.17;;;;;;;;;;4874737;28;20220;-81
2021/07/28 07:29:20;;;;;;;18.67;2.43;;;;;;;;;;4875264;28;20196;-79
2021/07/28 07:32:02;;;;;;;16.80;2.13;;;;;;;;;;4875541;28;20193;-82
2021/07/28 07:34:43;;;;;;;17.13;2.27;;;;;;;;;;4860481;28;20170;-84
2021/07/28 07:37:26;;;;;;;15.23;2.03;;;26.00;71.90;;;;;;4875554;28;20197;-83
2021/07/28 07:40:08;;;;;;;8.33;1.17;;;26.00;69.90;;;;;;4875663;28;20258;-83
2021/07/28 07:42:50;;;;;;;21.90;2.77;;;;;;;;;;4875597;28;20268;-82
2021/07/28 07:45:31;;;;;;;11.10;1.53;;;;;;;;;;4875943;28;20571;-75
2021/07/28 07:48:12;;;;;;;15.40;2.07;;;;;;;;;;4875287;28;20209;-75
2021/07/28 07:50:53;;;;;;;16.13;2.10;;;;;;;;;;4876660;28;20652;-84
2021/07/28 07:53:36;;;;;;;18.07;2.40;;;26.50;81.90;;;;;;4874568;28;20224;-83
2021/07/28 07:56:17;;;;;;;11.63;1.63;;;;;;;;;;4873596;28;20571;-81
2021/07/28 07:58:58;;;;;;;24.77;3.20;;;;;;;;;;4871150;28;20190;-83
2021/07/28 08:01:40;;;;;;;9.70;1.37;;;;;;;;;;4862787;28;20211;-79
2021/07/28 08:04:23;;;;;;;9.77;1.40;;;;;;;;;;4879966;28;20201;-76
2021/07/28 08:07:05;;;;;;;17.30;2.33;;;;;;;;;;4864410;28;20210;-84
2021/07/28 08:09:47;;;;;;;25.77;3.27;;;27.00;99.90;;;;;;4869885;28;20180;-74
2021/07/28 08:12:28;;;;;;;15.97;2.10;;;;;;;;;;4872780;28;20187;-75
2021/07/28 08:15:10;;;;;;;8.20;1.13;;;27.20;99.90;;;;;;4878898;28;20191;-74
2021/07/28 08:18:00;;;;;;;15.10;1.97;;;27.30;99.90;;;;;;4876679;28;20533;-75
2021/07/28 08:24:16;;;;;;;15.27;2.13;;;;;;;;;;4872663;28;20196;-75
2021/07/28 08:26:58;;;;;;;17.10;2.30;;;27.80;99.90;;;;;;4874188;28;20217;-78
2021/07/28 08:29:40;;;;;;;15.93;2.03;;;;;;;;;;4868013;28;20181;-79
2021/07/28 08:32:21;;;;;;;14.13;1.93;;;;;;;;;;4873467;28;20208;-75
2021/07/28 08:35:02;;;;;;;8.77;1.23;;;;;;;;;;4873458;28;20190;-74
2021/07/28 08:37:44;;;;;;;11.93;1.67;;;;;;;;;;4874161;28;20181;-75
2021/07/28 08:40:25;;;;;;;14.27;1.97;;;;;;;;;;4874815;28;20182;-76
2021/07/28 08:43:08;;;;;;;13.67;1.90;;;28.50;99.90;;;;;;4875186;28;20188;-73
2021/07/28 08:45:50;;;;;;;24.43;3.30;;;28.70;99.90;;;;;;4860932;28;20213;-83
2021/07/28 08:48:32;;;;;;;29.80;3.87;;;;;;;;;;4874954;28;20223;-76
2021/07/28 08:51:13;;;;;;;8.80;1.27;;;;;;;;;;4878819;28;20181;-77
2021/07/28 08:53:55;;;;;;;16.63;2.23;;;;;;;;;;4872882;28;20213;-88
2021/07/28 08:56:40;;;;;;;11.77;1.63;;;29.00;99.90;;;;;;4876199;28;20185;-80
2021/07/28 08:59:26;;;;;;;7.43;1.07;;;29.30;99.90;;;;;;4872892;28;20189;-79
2021/07/28 09:02:07;;;;;;;8.50;1.23;;;29.50;99.90;;;;;;4877332;28;20192;-74
2021/07/28 09:04:49;;;;;;;17.17;2.30;;;;;;;;;;4879810;28;20562;-86
2021/07/28 09:07:39;;;;;;;15.57;2.03;;;29.90;99.90;;;;;;4877748;28;20221;-79
2021/07/28 09:10:22;;;;;;;13.03;1.83;;;;;;;;;;4874358;28;20275;-78
2021/07/28 09:13:03;;;;;;;5.33;0.83;;;;;;;;;;4877184;28;20184;-76
2021/07/28 09:15:46;;;;;;;21.87;3.00;;;30.70;86.90;;;;;;4870506;28;20646;-74
2021/07/28 09:18:33;;;;;;;13.20;1.80;;;31.00;82.70;;;;;;4878157;28;20188;-75
2021/07/28 09:21:26;;;;;;;9.43;1.40;;;32.30;76.30;;;;;;4871190;28;20273;-78
2021/07/28 09:24:11;;;;;;;15.53;2.17;;;34.50;73.30;;;;;;4876022;28;20219;-83
2021/07/28 09:26:53;;;;;;;21.50;2.83;;;;;;;;;;4875063;28;20185;-76
2021/07/28 09:29:39;;;;;;;12.43;1.65;;;;;;;;;;4871062;28;20590;-78
2021/07/28 09:32:21;;;;;;;9.68;1.48;;;39.00;47.30;;;;;;4877564;28;20185;-78
2021/07/28 09:35:02;;;;;;;9.70;1.35;;;;;;;;;;4876743;28;20662;-75
2021/07/28 09:37:50;;;;;;;11.35;1.52;;;;;;;;;;4874446;28;20177;-77
2021/07/28 09:40:31;;;;;;;12.68;1.70;;;;;;;;;;4876750;28;20650;-82
2021/07/28 09:43:12;;;;;;;12.98;1.77;;;;;;;;;;4876453;28;20178;-78
2021/07/28 09:45:53;;;;;;;27.02;3.53;;;;;;;;;;4875385;28;20205;-76
2021/07/28 09:48:38;;;;;;;38.88;4.93;;;42.70;59.40;;;;;;4874574;28;20692;-77
2021/07/28 09:51:24;;;;;;;16.15;2.08;;;43.70;70.20;;;;;;4876971;28;20190;-77
2021/07/28 09:54:07;;;;;;;14.60;1.95;;;44.00;62.00;;;;;;4872788;28;20564;-76
2021/07/28 09:56:50;;;;;;;18.02;2.40;;;44.50;65.80;;;;;;4876592;28;20181;-77
2021/07/28 09:59:33;;;;;;;11.77;1.58;;;44.70;61.90;;;;;;4868589;28;20635;-76
2021/07/28 10:02:16;;;;;;;17.75;2.38;;;44.10;73.60;;;;;;4874379;28;20185;-77
2021/07/28 10:05:01;;;;;;;20.60;2.70;;;44.70;78.10;;;;;;4876404;28;20512;-76
2021/07/28 10:07:43;;;;;;;19.40;2.60;;;;;;;;;;4870299;28;20201;-76
2021/07/28 10:10:24;;;;;;;11.32;1.55;;;43.30;75.40;;;;;;4875516;28;20217;-83
2021/07/28 10:13:06;;;;;;;19.25;2.60;;;42.50;84.50;;;;;;4876904;28;20185;-78
2021/07/28 10:15:47;;;;;;;23.25;3.00;;;;;;;;;;4877089;28;20177;-78
2021/07/28 10:18:28;;;;;;;19.92;2.60;;;;;;;;;;4876414;28;20189;-77
2021/07/28 10:21:11;;;;;;;14.50;2.00;;;43.20;77.60;;;;;;4875427;28;20216;-76
2021/07/28 10:23:52;;;;;;;18.65;2.47;;;44.30;74.40;;;;;;4878172;28;20536;-76
2021/07/28 10:26:35;;;;;;;11.52;1.63;;;45.70;66.60;;;;;;4875751;28;20186;-75
2021/07/28 10:29:17;;;;;;;13.63;1.92;;;;;;;;;;4874682;28;20209;-76
2021/07/28 10:31:58;;;;;;;27.55;3.58;;;;;;;;;;4874672;28;20181;-75
2021/07/28 10:34:39;;;;;;;24.85;3.30;;;;;;;;;;4875458;28;20173;-75
2021/07/28 10:37:30;;;;;;;13.02;1.77;;;44.10;72.80;;;;;;4875997;28;20722;-78
2021/07/28 10:40:32;;;;;;;15.07;2.05;;;43.40;80.00;;;;;;4874315;28;20185;-77
2021/07/28 10:43:13;;;;;;;12.30;1.73;;;;;;;;;;4874849;28;20212;-76
2021/07/28 10:45:56;;;;;;;20.77;2.72;;;45.30;79.40;;;;;;4871921;28;20177;-75
2021/07/28 10:48:59;;;;;;;36.13;4.78;;;46.70;80.90;;;;;;4868836;28;20205;-77
2021/07/28 10:51:52;;;;;;;8.43;1.23;;;45.90;77.30;;;;;;4869156;28;20213;-78
2021/07/28 10:55:30;;;;;;;18.00;2.45;;;44.40;82.70;;;;;;4860865;28;20221;-74
2021/07/28 10:58:26;;;;;;;15.80;2.13;;;42.70;79.10;;;;;;4849185;28;20189;-75
2021/07/28 11:01:07;;;;;;;12.07;1.70;;;;;;;;;;4870177;28;20670;-75
2021/07/28 11:03:48;;;;;;;19.90;2.55;;;;;;;;;;4859258;28;20221;-76
2021/07/28 11:06:30;;;;;;;7.70;1.15;;;;;;;;;;4873850;28;20181;-79
2021/07/28 11:09:18;;;;;;;15.20;2.10;;;46.80;79.90;;;;;;4873362;28;20217;-77
2021/07/28 11:12:00;;;;;;;21.00;2.85;;;;;;;;;;4875290;28;20548;-77
2021/07/28 11:14:45;;;;;;;19.05;2.65;;;49.30;77.70;;;;;;4874300;28;20185;-78
2021/07/28 11:17:27;;;;;;;9.60;1.38;;;;;;;;;;4871521;28;20185;-78
2021/07/28 11:20:09;;;;;;;21.20;2.90;;;47.70;87.10;;;;;;4873361;28;20260;-76
2021/07/28 11:22:51;;;;;;;20.50;2.67;;;;;;;;;;4874766;28;20182;-77
2021/07/28 11:25:33;;;;;;;11.40;1.55;;;47.20;86.50;;;;;;4873663;28;20185;-78
2021/07/28 11:28:14;;;;;;;14.38;2.05;;;;;;;;;;4875486;28;20662;-78
2021/07/28 11:30:57;;;;;;;15.88;2.20;;;49.30;84.80;;;;;;4875076;28;20181;-76
2021/07/28 11:33:39;;;;;;;10.73;1.58;;;;;;;;;;4875613;28;20522;-78
2021/07/28 11:36:20;;;;;;;27.95;3.78;;;;;;;;;;4873483;28;20522;-79
2021/07/28 11:39:08;;;;;;;16.15;2.30;;;51.50;92.50;;;;;;4874226;28;20189;-76
2021/07/28 11:42:01;;;;;;;24.88;3.33;;;51.10;88.00;;;;;;4873723;28;20638;-77
2021/07/28 11:44:42;;;;;;;18.30;2.50;;;50.80;92.00;;;;;;4859578;28;20268;-78
2021/07/28 11:47:26;;;;;;;14.27;2.03;;;52.00;77.60;;;;;;4863669;28;20198;-79
2021/07/28 11:50:08;;;;;;;20.30;2.88;;;52.60;39.20;;;;;;4858345;28;20185;-78
2021/07/28 11:52:49;;;;;;;19.50;2.65;;;;;;;;;;4859286;28;20650;-76
2021/07/28 11:55:32;;;;;;;11.02;1.63;;;52.20;80.80;;;;;;4856075;28;20181;-80
2021/07/28 11:58:14;;;;;;;14.65;2.10;;;;;;;;;;4840364;28;20177;-80
2021/07/28 12:00:55;;;;;;;20.10;2.75;;;;;;;;;;4854336;28;20552;-84
2021/07/28 12:03:47;;;;;;;11.45;1.70;;;52.20;76.80;;;;;;4841490;28;20181;-78
2021/07/28 12:06:34;;;;;;;10.13;1.55;;;52.40;78.30;;;;;;4841050;28;20189;-80
2021/07/28 12:09:20;;;;;;;9.02;1.40;;;52.40;99.90;;;;;;4854398;28;20217;-85
2021/07/28 12:12:02;;;;;;;5.65;0.98;;;52.70;32.10;;;;;;4841049;28;20516;-75
2021/07/28 12:14:45;;;;;;;24.27;3.33;;;52.80;34.30;;;;;;4840559;28;20174;-77
2021/07/28 12:17:27;;;;;;;10.02;1.55;;;;;;;;;;4853019;28;20535;-77
2021/07/28 12:20:14;;;;;;;13.68;2.15;;;53.10;30.10;;;;;;4841542;28;20174;-78
2021/07/28 12:22:58;;;;;;;19.77;2.83;;;53.60;32.30;;;;;;4859540;28;20174;-77
2021/07/28 12:25:46;;;;;;;10.88;1.73;;;53.60;34.90;;;;;;4859567;28;20173;-80
2021/07/28 12:28:49;;;;;;;17.95;2.58;;;53.70;99.90;;;;;;4859140;28;20201;-77
2021/07/28 12:31:30;;;;;;;10.27;1.70;;;;;;;;;;4858585;28;20188;-79
2021/07/28 12:34:20;;;;;;;16.20;2.47;;;52.00;99.90;;;;;;4859116;28;20173;-77
2021/07/28 12:37:21;;;;;;;12.07;1.85;;;52.50;99.90;;;;;;4844567;28;20181;-75
2021/07/28 12:40:02;;;;;;;7.90;1.33;;;;;;;;;;4858544;28;20639;-76
2021/07/28 12:42:43;;;;;;;21.98;3.08;;;;;;;;;;4858392;28;20186;-77
2021/07/28 12:45:24;;;;;;;7.63;1.25;;;;;;;;;;4859223;28;20173;-77
2021/07/28 12:48:06;;;;;;;14.90;2.10;;;48.60;43.10;;;;;;4858848;28;20177;-77
2021/07/28 12:50:48;;;;;;;23.20;3.15;;;;;;;;;;4858958;28;20177;-77
2021/07/28 12:53:31;;;;;;;16.35;2.38;;;49.00;39.10;;;;;;4864871;28;20561;-81
2021/07/28 12:56:12;;;;;;;15.02;2.25;;;;;;;;;;4881857;28;20172;-78
2021/07/28 12:58:53;;;;;;;19.35;2.75;;;;;;;;;;4896744;28;20582;-78
2021/07/28 13:01:35;;;;;;;12.82;1.92;;;;;;;;;;4895725;28;20259;-78
2021/07/28 13:04:19;;;;;;;17.92;2.58;;;;;;;;;;4896282;28;20531;-81
2021/07/28 13:07:08;;;;;;;24.00;3.28;;;;;;;;;;4897288;28;20180;-76
2021/07/28 13:09:50;;;;;;;17.73;2.55;;;52.20;39.90;;;;;;4896198;28;20203;-79
2021/07/28 13:12:31;;;;;;;14.30;2.28;;;;;;;;;;4886741;28;20192;-77
2021/07/28 13:15:12;;;;;;;12.93;2.00;;;;;;;;;;4876743;28;20188;-80
2021/07/28 13:17:54;;;;;;;23.95;3.33;;;52.20;43.20;;;;;;4877486;28;20189;-79
2021/07/28 13:20:36;;;;;;;11.35;1.73;;;51.30;35.00;;;;;;4877285;28;20623;-80
2021/07/28 13:23:17;;;;;;;11.38;1.70;;;;;;;;;;4862490;28;20184;-78
2021/07/28 13:25:59;;;;;;;14.45;2.15;;;46.90;37.00;;;;;;4876344;28;20935;-76
2021/07/28 13:28:41;;;;;;;34.85;4.68;;;;;;;;;;4876994;28;20173;-77
2021/07/28 13:31:22;;;;;;;9.98;1.48;;;;;;;;;;4877510;28;20376;-77
2021/07/28 13:34:03;;;;;;;6.30;0.95;;;;;;;;;;4878757;28;20181;-87
2021/07/28 13:36:44;;;;;;;13.07;1.80;;;;;;;;;;4877115;28;20181;-76
2021/07/28 13:39:25;;;;;;;6.80;1.00;;;;;;;;;;4875982;28;20635;-77
2021/07/28 13:42:07;;;;;;;11.00;1.55;;;47.80;40.60;;;;;;4876422;28;20177;-77
2021/07/28 13:44:48;;;;;;;27.88;3.67;;;;;;;;;;4876614;28;20185;-76
2021/07/28 13:47:29;;;;;;;10.77;1.60;;;;;;;;;;4877010;28;20177;-77
2021/07/28 13:50:12;;;;;;;22.02;2.97;;;48.90;39.00;;;;;;4875654;28;20201;-78
2021/07/28 13:52:54;;;;;;;32.22;4.22;;;;;;;;;;4876336;28;20181;-77
2021/07/28 13:55:35;;;;;;;10.45;1.48;;;;;;;;;;4858489;28;20185;-89
2021/07/28 13:58:17;;;;;;;15.77;2.28;;;50.60;37.40;;;;;;4856745;28;20174;-82
2021/07/28 14:00:59;;;;;;;21.67;2.85;;;50.40;36.10;;;;;;4857014;28;20703;-80
2021/07/28 14:03:40;;;;;;;13.27;1.90;;;;;;;;;;4857174;28;20632;-79
2021/07/28 14:06:22;;;;;;;10.52;1.50;;;;;;;;;;4858437;28;20186;-77
2021/07/28 14:09:03;;;;;;;9.25;1.35;;;;;;;;;;4858068;28;20241;-81
2021/07/28 14:11:44;;;;;;;13.63;1.88;;;;;;;;;;4867512;28;20197;-76
2021/07/28 14:14:26;;;;;;;13.45;1.88;;;44.20;44.80;;;;;;4876886;28;20212;-79
2021/07/28 14:17:08;;;;;;;12.40;1.77;;;42.90;45.10;;;;;;4876722;28;20181;-81
2021/07/28 14:19:49;;;;;;;22.52;2.97;;;;;;;;;;4875408;28;20646;-77
2021/07/28 14:22:33;;;;;;;11.07;1.58;;;;;;;;;;4876931;28;20170;-76
2021/07/28 14:25:15;;;;;;;10.40;1.40;;;;;;;;;;4876310;28;20181;-76
2021/07/28 14:27:57;;;;;;;20.92;2.75;;;;;;;;;;4860831;28;20263;-76
2021/07/28 14:30:39;;;;;;;10.57;1.50;;;38.40;49.40;;;;;;4874848;28;20705;-76
2021/07/28 14:33:21;;;;;;;7.85;1.08;;;;;;;;;;4876535;28;20757;-76
2021/07/28 14:36:02;;;;;;;8.10;1.15;;;;;;;;;;4876033;28;20535;-76
2021/07/28 14:38:43;;;;;;;36.05;4.75;;;;;;;;;;4875552;28;20181;-76
2021/07/28 14:41:24;;;;;;;11.55;1.55;;;;;;;;;;4875280;28;20189;-75
2021/07/28 14:44:05;;;;;;;10.15;1.42;;;35.50;42.90;;;;;;4875860;28;20571;-76
2021/07/28 14:46:48;;;;;;;23.23;3.10;;;36.00;39.00;;;;;;4875822;28;20181;-76
2021/07/28 14:49:29;;;;;;;10.45;1.42;;;;;;;;;;4875482;28;20217;-75
2021/07/28 14:52:10;;;;;;;22.23;3.05;;;;;;;;;;4874197;28;20522;-75
2021/07/28 14:54:51;;;;;;;18.85;2.65;;;;;;;;;;4869182;28;20257;-75
2021/07/28 14:57:34;;;;;;;11.93;1.70;;;;;;;;;;4841401;28;20178;-74
2021/07/28 15:00:16;;;;;;;23.75;3.22;;;34.80;40.90;;;;;;4873653;28;20173;-76
2021/07/28 15:03:02;;;;;;;16.60;2.22;;;34.70;39.90;;;;;;4869942;28;20189;-75
2021/07/28 15:05:43;;;;;;;10.20;1.45;;;;;;;;;;4869011;28;20178;-75
2021/07/28 15:08:24;;;;;;;8.98;1.33;;;;;;;;;;4874246;28;20571;-75
2021/07/28 15:11:06;;;;;;;11.68;1.67;;;34.00;39.90;;;;;;4874311;28;20205;-75
2021/07/28 15:13:48;;;;;;;20.58;2.72;;;33.80;43.00;;;;;;4871630;28;20264;-75
2021/07/28 15:16:29;;;;;;;11.25;1.63;;;;;;;;;;4872909;28;20189;-76
2021/07/28 15:19:14;;;;;;;14.85;2.13;;;33.30;43.30;;;;;;4873599;28;20513;-76
2021/07/28 15:21:55;;;;;;;15.30;2.15;;;;;;;;;;4871052;28;20181;-77